Time;durP1;ratioP1;P1;durP2;ratioP2;P2;SDS_P1;SDS_P2;PMS_P1;PMS_P2;Temp;Humidity;BMP_temperature;BMP_pressure;BME280_temperature;BME280_humidity;BME280_pressure;Samples;Min_cycle;Max_cycle;Signal;HPM_P1;HPM_P2
2023/05/31 00:05:35;;;;;;;;;;;;;;;21.39;62.74;101346.81;4992152;28;19929;-93
2023/05/31 00:08:17;;;;;;;;;;;;;;;21.38;63.04;101343.28;4976057;28;19926;-91
2023/05/31 00:10:58;;;;;;;;;;;;;;;21.39;63.12;101336.19;4977368;28;19922;-92
2023/05/31 00:13:35;;;;;;;;;;;;;;;21.38;63.41;101337.97;4959513;28;19922;-93
2023/05/31 00:19:31;;;;;;;;;;;;;;;21.34;63.09;101337.00;4973986;28;19929;-91
2023/05/31 00:22:17;;;;;;;;;;;;;;;21.34;63.38;101342.31;4973047;28;19929;-91
2023/05/31 00:24:55;;;;;;;;;;;;;;;21.34;63.38;101336.13;4983048;28;20391;-92
2023/05/31 00:27:40;;;;;;;;;;;;;;;21.33;63.05;101344.94;4958419;28;19981;-94
2023/05/31 00:30:48;;;;;;;;;;;;;;;21.34;63.18;101344.09;4980468;28;19933;-92
2023/05/31 01:04:21;;;;;;;;;;;;;;;21.28;62.94;101338.66;4934748;29;19929;-93
2023/05/31 01:14:18;;;;;;;;;;;;;;;21.24;62.94;101339.44;4972328;28;19929;-94
2023/05/31 01:17:30;;;;;;;;;;;;;;;21.22;62.78;101341.19;4966415;28;20392;-93
2023/05/31 01:39:50;;;;;;;;;;;;;;;21.14;62.79;101339.28;4946960;29;20356;-92
2023/05/31 01:42:46;;;;;;;;;;;;;;;21.14;63.11;101341.03;4936501;29;19981;-94
2023/05/31 01:45:19;;;;;;;;;;;;;;;21.16;62.79;101339.28;4961790;28;19990;-95
2023/05/31 01:47:47;;;;;;;;;;;;;;;21.17;62.64;101338.44;4951086;28;20402;-90
2023/05/31 01:50:16;;;;;;;;;;;;;;;21.16;62.61;101341.94;4936632;29;19970;-92
2023/05/31 01:52:44;;;;;;;;;;;;;;;21.16;62.57;101341.94;4950363;29;19923;-92
2023/05/31 01:55:33;;;;;;;;;;;;;;;21.14;62.76;101336.63;4947728;28;19918;-93
2023/05/31 01:58:05;;;;;;;;;;;;;;;21.14;62.70;101339.28;4951563;28;20380;-92
2023/05/31 02:00:50;;;;;;;;;;;;;;;21.13;62.67;101342.78;4950032;28;19997;-93
2023/05/31 02:03:21;;;;;;;;;;;;;;;21.12;62.98;101342.75;4952017;29;19930;-92
2023/05/31 02:08:52;;;;;;;;;;;;;;;21.12;62.77;101345.41;4952614;28;19930;-92
2023/05/31 02:11:21;;;;;;;;;;;;;;;21.08;62.81;101335.59;4965300;28;20404;-92
2023/05/31 02:13:55;;;;;;;;;;;;;;;21.08;62.81;101335.59;4951323;28;20427;-93
2023/05/31 02:16:24;;;;;;;;;;;;;;;21.08;62.85;101341.81;4954382;28;20060;-92
2023/05/31 02:22:31;;;;;;;;;;;;;;;21.06;62.50;101338.22;4990988;28;20366;-94
2023/05/31 02:25:31;;;;;;;;;;;;;;;21.07;62.73;101339.13;4895955;29;19927;-93
2023/05/31 02:28:14;;;;;;;;;;;;;;;21.05;62.59;101336.44;4904511;29;19978;-93
2023/05/31 02:31:08;;;;;;;;;;;;;;;21.02;62.39;101349.66;4917559;29;20328;-93
2023/05/31 02:33:38;;;;;;;;;;;;;;;21.03;62.52;101354.09;4921018;29;19919;-92
2023/05/31 02:39:19;;;;;;;;;;;;;;;20.99;62.44;101354.00;4932429;29;19930;-91
2023/05/31 02:42:45;;;;;;;;;;;;;;;20.98;62.81;101353.09;4901592;29;19947;-91
2023/05/31 02:48:13;;;;;;;;;;;;;;;20.98;62.53;101361.06;4994071;28;20007;-93
2023/05/31 02:51:14;;;;;;;;;;;;;;;20.97;62.64;101369.00;4979698;28;19953;-92
2023/05/31 02:54:17;;;;;;;;;;;;;;;20.96;62.33;101369.88;4917809;29;19947;-91
2023/05/31 02:56:53;;;;;;;;;;;;;;;20.95;62.65;101371.63;4970143;28;19922;-92
2023/05/31 02:59:32;;;;;;;;;;;;;;;20.95;62.68;101368.97;4959217;28;19929;-92
2023/05/31 03:02:25;;;;;;;;;;;;;;;20.96;62.55;101369.88;4978313;28;20044;-92
2023/05/31 03:05:23;;;;;;;;;;;;;;;20.92;62.54;101366.25;4995263;28;19918;-91
2023/05/31 03:08:22;;;;;;;;;;;;;;;20.92;62.31;101369.78;4975486;28;19944;-92
2023/05/31 03:14:24;;;;;;;;;;;;;;;20.92;62.26;101379.53;4975519;28;19961;-92
2023/05/31 03:17:13;;;;;;;;;;;;;;;20.92;62.19;101380.41;4967816;28;19930;-91
2023/05/31 03:19:43;;;;;;;;;;;;;;;20.92;62.76;101379.53;4961293;28;19925;-89
2023/05/31 03:22:09;;;;;;;;;;;;;;;20.91;62.60;101383.03;4995684;28;20020;-89
2023/05/31 03:24:35;;;;;;;;;;;;;;;20.89;62.16;101374.13;4977608;28;20056;-89
2023/05/31 03:27:00;;;;;;;;;;;;;;;20.89;62.29;101379.44;4993356;28;19972;-90
2023/05/31 03:29:27;;;;;;;;;;;;;;;20.88;62.37;101380.31;4995313;28;20000;-90
2023/05/31 03:31:53;;;;;;;;;;;;;;;20.89;62.44;101390.06;4995418;28;19961;-89
2023/05/31 03:34:24;;;;;;;;;;;;;;;20.86;62.31;101388.25;4977838;28;19949;-92
2023/05/31 03:37:10;;;;;;;;;;;;;;;20.85;62.54;101386.47;4995686;28;19969;-92
2023/05/31 03:39:36;;;;;;;;;;;;;;;20.86;62.20;101387.34;4978496;28;19953;-92
2023/05/31 03:42:03;;;;;;;;;;;;;;;20.87;62.46;101390.06;4994816;28;20399;-90
2023/05/31 04:15:31;;;;;;;;;;;;;;;20.80;61.87;101401.38;4928630;29;20376;-85
2023/05/31 04:21:35;;;;;;;;;;;;;;;20.79;62.22;101396.06;4911411;29;20026;-86
2023/05/31 04:27:25;;;;;;;;;;;;;;;20.77;62.35;101401.31;4897671;29;20438;-86
2023/05/31 04:30:18;;;;;;;;;;;;;;;20.78;62.36;101402.22;4874054;29;20018;-86
2023/05/31 04:39:31;;;;;;;;;;;;;;;20.77;62.56;101397.78;4960002;28;19933;-87
2023/05/31 04:41:56;;;;;;;;;;;;;;;20.76;62.53;101393.31;4941623;28;19926;-87
2023/05/31 04:44:21;;;;;;;;;;;;;;;20.69;62.75;101394.94;4950333;28;19922;-89
2023/05/31 04:46:47;;;;;;;;;;;;;;;20.74;62.38;101399.50;4951706;28;19923;-86
2023/05/31 04:49:12;;;;;;;;;;;;;;;20.79;62.49;101398.72;4931004;28;20595;-86
2023/05/31 04:51:38;;;;;;;;;;;;;;;20.79;61.91;101401.38;4943583;28;20392;-86
2023/05/31 04:54:03;;;;;;;;;;;;;;;20.76;62.00;101406.59;4933736;29;20025;-86
2023/05/31 04:56:29;;;;;;;;;;;;;;;20.76;61.96;101410.13;4949644;28;19929;-87
2023/05/31 04:58:55;;;;;;;;;;;;;;;20.79;61.95;101412.00;4951327;28;20295;-87
2023/05/31 05:01:21;;;;;;;;;;;;;;;20.76;61.76;101417.22;4933695;28;19973;-87
2023/05/31 05:03:46;;;;;;;;;;;;;;;20.78;61.62;101420.78;4951851;28;19926;-86
2023/05/31 05:06:18;;;;;;;;;;;;;;;20.77;61.86;101413.72;4966991;28;20009;-85
2023/05/31 05:08:44;;;;;;;;;;;;;;;20.80;61.53;101425.28;4951398;28;19922;-87
2023/05/31 05:11:10;;;;;;;;;;;;;;;20.81;61.57;101427.09;4941510;28;19978;-87
2023/05/31 05:13:35;;;;;;;;;;;;;;;20.80;61.60;101419.97;4936911;28;19926;-87
2023/05/31 05:16:02;;;;;;;;;;;;;;;20.82;61.83;101425.31;4947688;28;19926;-86
2023/05/31 05:18:27;;;;;;;;;;;;;;;20.79;61.76;101425.25;4952317;28;19989;-87
2023/05/31 05:20:53;;;;;;;;;;;;;;;20.83;61.51;101430.66;4964709;28;20380;-86
2023/05/31 05:23:18;;;;;;;;;;;;;;;20.79;61.55;101430.56;4965793;28;19930;-85
2023/05/31 05:25:44;;;;;;;;;;;;;;;20.76;61.66;101433.13;4970255;28;20403;-86
2023/05/31 05:28:10;;;;;;;;;;;;;;;20.74;61.69;101425.13;4944847;28;20447;-85
2023/05/31 05:30:35;;;;;;;;;;;;;;;20.68;61.42;101427.63;4988897;28;20414;-84
2023/05/31 05:33:00;;;;;;;;;;;;;;;20.74;61.64;101430.44;4987931;28;20014;-85
2023/05/31 05:35:26;;;;;;;;;;;;;;;20.70;61.53;101434.81;4973222;28;20424;-85
2023/05/31 05:37:52;;;;;;;;;;;;;;;20.76;61.44;101433.13;4990764;28;19988;-85
2023/05/31 05:40:18;;;;;;;;;;;;;;;20.82;61.47;101441.25;4997827;28;20300;-84
2023/05/31 05:42:44;;;;;;;;;;;;;;;20.80;61.44;101443.84;4988152;28;19921;-85
2023/05/31 05:45:10;;;;;;;;;;;;;;;20.75;61.43;101440.22;4981733;28;20024;-85
2023/05/31 05:47:35;;;;;;;;;;;;;;;20.86;61.09;101448.41;4995077;28;19930;-85
2023/05/31 05:50:01;;;;;;;;;;;;;;;20.82;61.18;101446.56;4967028;28;19926;-85
2023/05/31 05:52:26;;;;;;;;;;;;;;;20.83;61.19;101451.91;4987732;28;19926;-86
2023/05/31 05:54:52;;;;;;;;;;;;;;;20.81;61.21;101440.34;4993271;28;20000;-86
2023/05/31 05:57:18;;;;;;;;;;;;;;;20.84;61.35;101444.84;4991190;28;20607;-85
2023/05/31 05:59:44;;;;;;;;;;;;;;;20.86;61.37;101448.41;4993979;28;20017;-84
2023/05/31 06:02:10;;;;;;;;;;;;;;;20.89;61.40;101448.47;4989353;28;20013;-83
2023/05/31 06:04:36;;;;;;;;;;;;;;;20.85;61.60;101450.19;4989688;28;19922;-83
2023/05/31 06:07:01;;;;;;;;;;;;;;;20.84;61.62;101442.19;4990856;28;19921;-84
2023/05/31 06:09:27;;;;;;;;;;;;;;;20.84;61.53;101447.47;4985367;28;19933;-84
2023/05/31 06:11:52;;;;;;;;;;;;;;;20.85;61.54;101447.53;4996209;28;19934;-84
2023/05/31 06:14:17;;;;;;;;;;;;;;;20.82;61.46;101444.78;4993378;28;20477;-83
2023/05/31 06:16:43;;;;;;;;;;;;;;;20.84;61.50;101443.06;4986922;28;20008;-83
2023/05/31 06:19:08;;;;;;;;;;;;;;;20.80;61.63;101440.31;4989727;28;20316;-83
2023/05/31 06:21:34;;;;;;;;;;;;;;;20.81;61.68;101439.47;4988877;28;19922;-83
2023/05/31 06:24:00;;;;;;;;;;;;;;;20.80;61.41;101442.97;4991407;28;20346;-83
2023/05/31 06:26:26;;;;;;;;;;;;;;;20.85;61.38;101446.59;4989337;28;19964;-83
2023/05/31 06:28:52;;;;;;;;;;;;;;;20.82;61.58;101447.44;4988586;28;19922;-83
2023/05/31 06:31:17;;;;;;;;;;;;;;;20.83;61.32;101443.06;4976035;28;19941;-84
2023/05/31 06:33:43;;;;;;;;;;;;;;;20.78;61.68;101445.56;4988275;28;19934;-83
2023/05/31 06:36:08;;;;;;;;;;;;;;;20.78;61.48;101445.56;4969860;28;20372;-82
2023/05/31 06:38:34;;;;;;;;;;;;;;;20.81;61.56;101445.66;4990571;28;19921;-81
2023/05/31 06:41:00;;;;;;;;;;;;;;;20.83;61.38;101445.72;4989481;28;19922;-84
2023/05/31 06:43:25;;;;;;;;;;;;;;;20.75;61.87;101442.88;4995594;28;19936;-83
2023/05/31 06:45:51;;;;;;;;;;;;;;;20.74;61.89;101452.59;4992920;28;19933;-83
2023/05/31 06:48:16;;;;;;;;;;;;;;;20.72;61.92;101446.34;4993408;28;19929;-83
2023/05/31 06:50:42;;;;;;;;;;;;;;;20.76;61.88;101451.72;4983958;28;20036;-84
2023/05/31 06:53:09;;;;;;;;;;;;;;;20.73;62.05;101457.88;4987855;28;20076;-81
2023/05/31 06:55:34;;;;;;;;;;;;;;;20.74;61.79;101455.25;4989251;28;20052;-82
2023/05/31 06:58:00;;;;;;;;;;;;;;;20.75;61.83;101456.13;4993684;28;20420;-84
2023/05/31 07:00:26;;;;;;;;;;;;;;;20.74;61.92;101443.72;4966898;28;20451;-81
2023/05/31 07:02:51;;;;;;;;;;;;;;;20.72;61.88;101446.34;4964175;28;19929;-83
2023/05/31 07:05:16;;;;;;;;;;;;;;;20.73;61.85;101452.56;4988225;28;20422;-81
2023/05/31 07:07:42;;;;;;;;;;;;;;;20.77;61.83;101448.22;4987744;28;19933;-83
2023/05/31 07:10:08;;;;;;;;;;;;;;;20.74;61.92;101441.97;4980292;28;20383;-82
2023/05/31 07:12:33;;;;;;;;;;;;;;;20.79;61.93;101449.16;4992356;28;19947;-84
2023/05/31 07:14:58;;;;;;;;;;;;;;;20.81;61.81;101452.75;4990210;28;20007;-84
2023/05/31 07:17:24;;;;;;;;;;;;;;;20.80;61.74;101451.81;4973017;28;19930;-84
2023/05/31 07:19:50;;;;;;;;;;;;;;;20.80;61.90;101453.59;4988596;28;20415;-84
2023/05/31 07:22:16;;;;;;;;;;;;;;;20.80;61.76;101450.94;4990950;28;19957;-83
2023/05/31 07:24:42;;;;;;;;;;;;;;;20.81;61.92;101452.75;4967064;28;19926;-83
2023/05/31 07:27:07;;;;;;;;;;;;;;;20.85;61.79;101454.56;4970276;28;19922;-84
2023/05/31 07:29:33;;;;;;;;;;;;;;;20.84;61.85;101448.38;4989210;28;20013;-85
2023/05/31 07:31:59;;;;;;;;;;;;;;;20.87;61.89;101445.81;4985196;28;19925;-84
2023/05/31 07:34:24;;;;;;;;;;;;;;;20.84;61.85;101450.13;4970676;28;19929;-85
2023/05/31 07:36:49;;;;;;;;;;;;;;;20.88;61.67;101452.00;4991541;28;20399;-84
2023/05/31 07:39:16;;;;;;;;;;;;;;;20.90;61.73;101458.25;4975064;28;20337;-85
2023/05/31 07:41:42;;;;;;;;;;;;;;;20.90;61.79;101452.94;4991032;28;20000;-85
2023/05/31 07:44:08;;;;;;;;;;;;;;;20.94;61.73;101458.34;4991535;28;19971;-86
2023/05/31 07:46:35;;;;;;;;;;;;;;;20.93;61.78;101460.97;4991252;28;19957;-87
2023/05/31 07:49:01;;;;;;;;;;;;;;;21.00;61.78;101462.91;4967302;28;20347;-87
2023/05/31 07:51:28;;;;;;;;;;;;;;;20.97;61.82;101465.47;4990322;28;19933;-85
2023/05/31 07:53:53;;;;;;;;;;;;;;;20.99;61.71;101461.09;4960023;28;23047;-86
2023/05/31 07:56:19;;;;;;;;;;;;;;;21.04;61.68;101459.47;4999927;28;19921;-86
2023/05/31 07:58:45;;;;;;;;;;;;;;;21.04;61.59;101462.13;4991221;28;19922;-86
2023/05/31 08:01:10;;;;;;;;;;;;;;;21.07;61.91;101467.47;4970427;28;19961;-86
2023/05/31 08:03:36;;;;;;;;;;;;;;;21.06;61.75;101463.06;4990946;28;20383;-86
2023/05/31 08:06:01;;;;;;;;;;;;;;;21.08;61.54;101466.63;4996869;28;19926;-88
2023/05/31 08:08:27;;;;;;;;;;;;;;;21.09;61.58;101463.09;4989522;28;19933;-87
2023/05/31 08:10:52;;;;;;;;;;;;;;;21.13;61.86;101469.38;4993271;28;19929;-87
2023/05/31 08:13:18;;;;;;;;;;;;;;;21.12;61.70;101468.50;4981569;28;19976;-87
2023/05/31 08:15:43;;;;;;;;;;;;;;;21.10;62.21;101475.53;4994960;28;20394;-89
2023/05/31 08:18:08;;;;;;;;;;;;;;;21.13;61.89;101467.63;4989644;28;20383;-88
2023/05/31 08:20:34;;;;;;;;;;;;;;;21.17;61.79;101472.97;4983084;28;19945;-85
2023/05/31 08:22:59;;;;;;;;;;;;;;;21.18;61.71;101474.78;4974547;28;19945;-84
2023/05/31 08:25:25;;;;;;;;;;;;;;;21.15;62.04;101472.97;4992129;28;19922;-84
2023/05/31 08:27:50;;;;;;;;;;;;;;;21.17;61.86;101478.28;4991829;28;20381;-87
2023/05/31 08:30:16;;;;;;;;;;;;;;;21.17;62.41;101486.25;4987427;28;19922;-86
2023/05/31 08:32:41;;;;;;;;;;;;;;;21.19;61.81;101484.53;4986476;28;20380;-86
2023/05/31 08:35:08;;;;;;;;;;;;;;;21.20;61.84;101492.56;4981117;28;20482;-86
2023/05/31 08:37:35;;;;;;;;;;;;;;;21.21;62.16;101481.06;4996586;28;19925;-84
2023/05/31 08:40:00;;;;;;;;;;;;;;;21.22;61.72;101488.16;4974247;28;20319;-83
2023/05/31 08:42:28;;;;;;;;;;;;;;;21.26;61.73;101484.72;4990030;28;19922;-84
2023/05/31 08:44:55;;;;;;;;;;;;;;;21.22;61.83;101484.63;4991544;28;19926;-88
2023/05/31 08:47:28;;;;;;;;;;;;;;;21.23;61.87;101481.09;4982858;28;19965;-89
2023/05/31 08:49:54;;;;;;;;;;;;;;;21.22;62.23;101487.28;4990746;28;19969;-83
2023/05/31 08:52:20;;;;;;;;;;;;;;;21.22;62.05;101482.84;4983060;28;19917;-82
2023/05/31 08:54:45;;;;;;;;;;;;;;;21.28;62.21;101479.44;4960979;28;19962;-84
2023/05/31 08:57:11;;;;;;;;;;;;;;;21.28;62.08;101479.44;4992927;28;19922;-84
2023/05/31 08:59:36;;;;;;;;;;;;;;;21.30;61.90;101475.06;4993002;28;19997;-85
2023/05/31 09:02:02;;;;;;;;;;;;;;;21.29;61.95;101484.81;4992803;28;20402;-84
2023/05/31 09:04:27;;;;;;;;;;;;;;;21.32;61.93;101473.34;4991579;28;19917;-84
2023/05/31 09:06:53;;;;;;;;;;;;;;;21.33;61.86;101480.44;4992428;28;20017;-83
2023/05/31 09:09:19;;;;;;;;;;;;;;;21.35;61.88;101476.94;4991538;28;20015;-85
2023/05/31 09:11:44;;;;;;;;;;;;;;;21.35;61.90;101474.28;4992737;28;20247;-84
2023/05/31 09:14:10;;;;;;;;;;;;;;;21.34;61.87;101477.81;4991163;28;20280;-84
2023/05/31 09:16:35;;;;;;;;;;;;;;;21.35;62.00;101474.28;4990811;28;19964;-84
2023/05/31 09:19:02;;;;;;;;;;;;;;;21.36;62.04;101477.84;4983476;28;20574;-84
2023/05/31 09:21:28;;;;;;;;;;;;;;;21.40;62.30;101473.47;4993228;28;19941;-84
2023/05/31 09:23:54;;;;;;;;;;;;;;;21.43;62.22;101473.59;4992321;28;19922;-84
2023/05/31 09:26:19;;;;;;;;;;;;;;;21.41;62.24;101468.19;4992204;28;20415;-83
2023/05/31 09:28:48;;;;;;;;;;;;;;;21.44;62.27;101472.72;4989402;28;19918;-84
2023/05/31 09:31:15;;;;;;;;;;;;;;;21.45;62.03;101477.19;4991597;28;19976;-84
2023/05/31 09:33:44;;;;;;;;;;;;;;;21.46;62.05;101474.56;4992656;28;19926;-83
2023/05/31 09:36:11;;;;;;;;;;;;;;;21.47;62.02;101471.03;4992736;28;20013;-84
2023/05/31 09:38:36;;;;;;;;;;;;;;;21.47;62.18;101473.69;4992704;28;20386;-84
2023/05/31 09:41:20;;;;;;;;;;;;;;;21.48;62.33;101477.22;4992784;28;19921;-84
2023/05/31 09:43:46;;;;;;;;;;;;;;;21.51;62.18;101479.97;4992177;28;20028;-84
2023/05/31 09:46:16;;;;;;;;;;;;;;;21.50;62.26;101472.84;4978763;28;20014;-83
2023/05/31 09:48:42;;;;;;;;;;;;;;;21.52;62.45;101477.31;4992662;28;19922;-83
2023/05/31 09:51:08;;;;;;;;;;;;;;;21.56;62.84;101478.28;4992682;28;19918;-84
2023/05/31 09:53:43;;;;;;;;;;;;;;;21.54;63.50;101472.94;4991854;28;20407;-83
2023/05/31 09:56:16;;;;;;;;;;;;;;;21.54;63.73;101477.34;4992423;28;19922;-84
2023/05/31 09:58:42;;;;;;;;;;;;;;;21.56;63.40;101475.63;4992006;28;19929;-83
2023/05/31 10:01:07;;;;;;;;;;;;;;;21.57;63.63;101472.13;4992563;28;19921;-83
2023/05/31 10:03:33;;;;;;;;;;;;;;;21.61;63.79;101468.66;4990949;28;19945;-82
2023/05/31 10:05:58;;;;;;;;;;;;;;;21.65;63.67;101474.91;4991025;28;19925;-84
2023/05/31 10:08:25;;;;;;;;;;;;;;;21.61;64.31;101470.41;4990222;28;19963;-84
2023/05/31 10:10:51;;;;;;;;;;;;;;;21.59;64.95;101467.72;4991016;28;19971;-83
2023/05/31 10:13:17;;;;;;;;;;;;;;;21.59;65.08;101470.38;4961718;28;19924;-84
2023/05/31 10:15:43;;;;;;;;;;;;;;;21.64;65.15;101470.47;4990213;28;19925;-84
2023/05/31 10:18:14;;;;;;;;;;;;;;;21.65;65.39;101470.50;4990740;28;20322;-83
2023/05/31 10:20:41;;;;;;;;;;;;;;;21.67;65.45;101463.44;4989084;28;19914;-83
2023/05/31 10:23:15;;;;;;;;;;;;;;;21.71;64.94;101467.06;4991762;28;19924;-83
2023/05/31 10:25:59;;;;;;;;;;;;;;;21.73;64.81;101468.88;4990642;28;19918;-84
2023/05/31 10:28:26;;;;;;;;;;;;;;;21.77;64.55;101468.94;4990444;28;19918;-83
2023/05/31 10:30:51;;;;;;;;;;;;;;;21.20;64.36;101361.50;4991786;28;19922;-85
2023/05/31 10:33:17;;;;;;;;;;;;;;;21.80;64.38;101463.69;4990936;28;20004;-83
2023/05/31 10:35:42;;;;;;;;;;;;;;;21.82;64.05;101459.28;4990709;28;19921;-83
2023/05/31 10:38:08;;;;;;;;;;;;;;;21.85;64.25;101454.94;4990375;28;19925;-84
2023/05/31 10:40:39;;;;;;;;;;;;;;;21.87;63.80;101455.84;4991477;28;19918;-84
2023/05/31 10:43:19;;;;;;;;;;;;;;;21.89;63.92;101450.56;4991645;28;20012;-83
2023/05/31 10:45:45;;;;;;;;;;;;;;;21.91;63.84;101447.06;4989707;28;19980;-84
2023/05/31 10:48:20;;;;;;;;;;;;;;;21.90;63.76;101447.03;4990231;28;19925;-83
2023/05/31 10:51:06;;;;;;;;;;;;;;;21.91;63.71;101447.06;4974204;28;19918;-84
2023/05/31 10:53:35;;;;;;;;;;;;;;;21.92;63.50;101448.84;4991161;28;19928;-83
2023/05/31 10:56:02;;;;;;;;;;;;;;;21.94;63.45;101444.44;4990783;28;19925;-84
2023/05/31 10:58:29;;;;;;;;;;;;;;;21.96;63.27;101440.06;4990525;28;19921;-83
2023/05/31 11:00:55;;;;;;;;;;;;;;;21.97;63.19;101443.63;4991892;28;19922;-83
2023/05/31 11:03:21;;;;;;;;;;;;;;;21.96;63.20;101436.50;4991431;28;20012;-83
2023/05/31 11:05:57;;;;;;;;;;;;;;;21.99;63.29;101438.31;4993066;28;19918;-85
2023/05/31 11:08:22;;;;;;;;;;;;;;;22.01;63.21;101436.59;4993682;28;19922;-83
2023/05/31 11:10:48;;;;;;;;;;;;;;;22.02;63.05;101443.72;4965367;28;19922;-82
2023/05/31 11:13:13;;;;;;;;;;;;;;;22.02;63.11;101441.06;4976761;28;19989;-82
2023/05/31 11:15:40;;;;;;;;;;;;;;;22.04;62.97;101437.53;4972951;28;19926;-81
2023/05/31 11:18:26;;;;;;;;;;;;;;;22.04;63.04;101440.22;4994878;28;19945;-82
2023/05/31 11:20:51;;;;;;;;;;;;;;;22.07;63.10;101442.91;4991613;28;19924;-82
2023/05/31 11:23:16;;;;;;;;;;;;;;;22.09;63.05;101441.16;4993082;28;19918;-83
2023/05/31 11:25:42;;;;;;;;;;;;;;;22.12;63.01;101437.69;4994195;28;20391;-84
2023/05/31 11:28:07;;;;;;;;;;;;;;;22.15;63.50;101432.41;4982042;28;19936;-84
2023/05/31 11:30:36;;;;;;;;;;;;;;;22.17;63.51;101422.69;4992864;28;20033;-82
2023/05/31 11:33:02;;;;;;;;;;;;;;;22.23;63.63;101428.16;4994617;28;19921;-84
2023/05/31 11:35:30;;;;;;;;;;;;;;;22.21;63.66;101421.88;4977736;28;19926;-83
2023/05/31 11:37:59;;;;;;;;;;;;;;;22.23;63.31;101420.16;4988666;28;20004;-84
2023/05/31 11:40:25;;;;;;;;;;;;;;;22.23;63.33;101427.25;4992807;28;20292;-82
2023/05/31 11:42:53;;;;;;;;;;;;;;;22.23;63.35;101416.63;4994543;28;20407;-84
2023/05/31 11:45:20;;;;;;;;;;;;;;;22.25;63.36;101422.88;4961353;28;20003;-83
2023/05/31 11:47:45;;;;;;;;;;;;;;;22.25;63.41;101420.19;4989541;28;19921;-84
2023/05/31 11:50:17;;;;;;;;;;;;;;;22.27;63.28;101421.13;4993201;28;19956;-83
2023/05/31 12:12:44;;;;;;;;;;;;;;;22.44;63.80;101419.63;4895899;29;19934;-83
2023/05/31 12:21:35;;;;;;;;;;;;;;;22.47;64.53;101409.00;4845541;29;19960;-84
2023/05/31 12:24:02;;;;;;;;;;;;;;;22.50;64.56;101408.16;4860537;29;19927;-83
2023/05/31 12:26:27;;;;;;;;;;;;;;;22.52;64.93;101415.31;4914471;29;19926;-84
2023/05/31 12:28:52;;;;;;;;;;;;;;;22.53;64.93;101411.75;4953507;28;19930;-84
2023/05/31 12:31:37;;;;;;;;;;;;;;;22.54;65.63;101415.31;4947495;29;20388;-85
2023/05/31 12:34:05;;;;;;;;;;;;;;;22.48;66.67;101404.56;4958753;28;20411;-84
2023/05/31 12:36:37;;;;;;;;;;;;;;;22.47;67.10;101398.38;4951052;28;19923;-83
2023/05/31 12:39:03;;;;;;;;;;;;;;;22.51;66.99;101399.31;4953215;28;19929;-83
2023/05/31 12:41:28;;;;;;;;;;;;;;;22.51;67.26;101400.19;4962660;28;19953;-84
2023/05/31 12:43:54;;;;;;;;;;;;;;;22.55;67.35;101399.38;4953325;28;19919;-82
2023/05/31 12:46:19;;;;;;;;;;;;;;;22.51;67.69;101392.22;4954103;28;20390;-82
2023/05/31 12:48:48;;;;;;;;;;;;;;;22.55;67.63;101394.06;4934731;29;19919;-85
2023/05/31 12:51:19;;;;;;;;;;;;;;;22.54;67.67;101396.69;4950436;29;20012;-83
2023/05/31 12:53:45;;;;;;;;;;;;;;;22.57;67.31;101380.78;4985365;28;19919;-83
2023/05/31 12:56:11;;;;;;;;;;;;;;;22.61;66.76;101384.38;4968254;28;19926;-82
2023/05/31 12:58:36;;;;;;;;;;;;;;;22.60;66.67;101382.56;4925571;29;19923;-83
2023/05/31 13:01:01;;;;;;;;;;;;;;;22.64;66.34;101374.66;4953241;29;19922;-85
2023/05/31 13:03:27;;;;;;;;;;;;;;;22.63;66.49;101375.53;4918486;29;19921;-84
2023/05/31 13:05:52;;;;;;;;;;;;;;;22.66;66.07;101380.91;4957589;28;19923;-84
2023/05/31 13:08:18;;;;;;;;;;;;;;;22.69;65.97;101374.72;4984341;28;20388;-83
2023/05/31 13:10:43;;;;;;;;;;;;;;;22.72;65.70;101377.44;4968296;28;22435;-84
2023/05/31 13:13:08;;;;;;;;;;;;;;;22.71;65.95;101380.94;4985361;28;20370;-85
2023/05/31 13:15:34;;;;;;;;;;;;;;;22.73;65.67;101379.22;4951755;29;20384;-85
2023/05/31 13:17:59;;;;;;;;;;;;;;;22.72;65.75;101382.75;4943433;28;20359;-85
2023/05/31 13:20:25;;;;;;;;;;;;;;;22.74;65.68;101375.69;4981519;28;19972;-84
2023/05/31 13:22:50;;;;;;;;;;;;;;;22.76;65.53;101384.59;4963272;28;20053;-85
2023/05/31 13:25:17;;;;;;;;;;;;;;;22.79;65.40;101378.41;4978394;28;19980;-84
2023/05/31 13:27:42;;;;;;;;;;;;;;;22.76;65.40;101382.81;4963753;28;19932;-85
2023/05/31 13:30:08;;;;;;;;;;;;;;;22.80;65.32;101382.88;4972438;28;19922;-85
2023/05/31 13:32:34;;;;;;;;;;;;;;;22.79;65.45;101387.28;4974154;28;19918;-85
2023/05/31 13:35:04;;;;;;;;;;;;;;;22.74;65.61;101389.00;4973350;28;19924;-85
2023/05/31 13:37:29;;;;;;;;;;;;;;;22.77;65.15;101387.28;4990262;28;20419;-85
2023/05/31 13:39:55;;;;;;;;;;;;;;;22.77;65.35;101394.34;4986326;28;19964;-85
2023/05/31 13:42:20;;;;;;;;;;;;;;;22.77;65.24;101384.63;4980554;28;20020;-86
2023/05/31 13:44:46;;;;;;;;;;;;;;;22.82;65.13;101386.41;4992030;28;19921;-85
2023/05/31 13:47:11;;;;;;;;;;;;;;;22.80;65.49;101385.53;4990664;28;19925;-83
2023/05/31 13:49:37;;;;;;;;;;;;;;;22.83;65.13;101393.56;4957586;28;20074;-84
2023/05/31 13:52:04;;;;;;;;;;;;;;;22.85;65.63;101411.34;4986214;28;20025;-84
2023/05/31 13:54:30;;;;;;;;;;;;;;;22.83;65.33;101407.75;4990978;28;19945;-83
2023/05/31 13:56:58;;;;;;;;;;;;;;;22.83;65.31;101398.88;4952041;28;19921;-83
2023/05/31 13:59:24;;;;;;;;;;;;;;;22.85;65.21;101398.03;4970026;28;19932;-85
2023/05/31 14:01:49;;;;;;;;;;;;;;;22.84;65.28;101411.31;4989475;28;19921;-86
2023/05/31 14:04:15;;;;;;;;;;;;;;;22.85;65.29;101406.00;4990139;28;19929;-86
2023/05/31 14:06:41;;;;;;;;;;;;;;;22.85;65.36;101410.44;4990901;28;20310;-84
2023/05/31 14:09:07;;;;;;;;;;;;;;;22.85;65.43;101407.78;4990288;28;19921;-84
2023/05/31 14:11:32;;;;;;;;;;;;;;;22.87;65.27;101406.03;4973149;28;19925;-84
2023/05/31 14:13:57;;;;;;;;;;;;;;;22.87;65.38;101406.03;4960615;28;19926;-84
2023/05/31 14:16:23;;;;;;;;;;;;;;;22.86;65.21;101404.22;4986868;28;19926;-83
2023/05/31 14:18:48;;;;;;;;;;;;;;;22.85;65.38;101398.03;4991251;28;19944;-85
2023/05/31 14:21:14;;;;;;;;;;;;;;;22.85;65.12;101398.03;4946810;28;20021;-83
2023/05/31 14:23:39;;;;;;;;;;;;;;;22.86;65.23;101402.50;4968803;28;20371;-85
2023/05/31 14:26:05;;;;;;;;;;;;;;;22.90;65.17;101395.41;4989656;28;19985;-85
2023/05/31 14:28:30;;;;;;;;;;;;;;;22.88;65.21;101392.75;4989320;28;20330;-84
2023/05/31 14:30:55;;;;;;;;;;;;;;;22.89;65.57;101396.31;4990854;28;19922;-85
2023/05/31 14:33:23;;;;;;;;;;;;;;;22.89;65.25;101397.19;4990162;28;20379;-84
2023/05/31 14:35:49;;;;;;;;;;;;;;;22.91;65.66;101398.09;4987192;28;19937;-84
2023/05/31 14:38:15;;;;;;;;;;;;;;;22.90;65.53;101395.41;4969103;28;19922;-84
2023/05/31 14:40:40;;;;;;;;;;;;;;;22.94;65.68;101402.56;4972782;28;20011;-84
2023/05/31 14:43:05;;;;;;;;;;;;;;;22.91;66.53;101391.88;4992178;28;19921;-84
2023/05/31 14:45:31;;;;;;;;;;;;;;;22.92;67.15;101397.25;4982120;28;20319;-84
2023/05/31 14:47:59;;;;;;;;;;;;;;;22.90;67.30;101393.66;4968724;28;20462;-85
2023/05/31 14:50:25;;;;;;;;;;;;;;;22.90;68.64;101392.75;4990895;28;20224;-84
2023/05/31 14:52:50;;;;;;;;;;;;;;;22.86;69.14;101389.19;4994750;28;19918;-85
2023/05/31 14:55:16;;;;;;;;;;;;;;;22.87;69.13;101392.72;4993397;28;19918;-85
2023/05/31 14:57:41;;;;;;;;;;;;;;;22.88;69.32;101390.09;4969995;28;21970;-83
2023/05/31 15:00:07;;;;;;;;;;;;;;;22.87;70.28;101384.72;4959863;28;19948;-84
2023/05/31 15:02:33;;;;;;;;;;;;;;;22.85;71.17;101390.03;4968221;28;19973;-83
2023/05/31 15:04:58;;;;;;;;;;;;;;;22.87;71.02;101388.28;4975045;28;20430;-84
2023/05/31 15:07:24;;;;;;;;;;;;;;;22.88;71.23;101387.44;4975656;28;19921;-84
2023/05/31 15:09:49;;;;;;;;;;;;;;;22.88;71.51;101382.09;4957715;28;20388;-84
2023/05/31 15:12:15;;;;;;;;;;;;;;;22.89;72.22;101380.31;4988454;28;20319;-84
2023/05/31 15:14:40;;;;;;;;;;;;;;;22.94;72.50;101376.84;4993767;28;19918;-84
2023/05/31 15:17:05;;;;;;;;;;;;;;;22.96;72.82;101379.50;4994421;28;20004;-85